createdAt,value
2019-05-22T00:00:22.917Z,19.62
2019-05-22T00:02:51.564Z,23.38
2019-05-22T00:05:24.634Z,18.45
2019-05-22T00:07:55.504Z,19.13
2019-05-22T00:10:26.686Z,18.17
2019-05-22T00:12:57.618Z,15.16
2019-05-22T00:15:26.891Z,14.10
2019-05-22T00:17:58.297Z,14.13
2019-05-22T00:20:29.644Z,14.33
2019-05-22T00:22:59.992Z,13.60
2019-05-22T00:25:33.397Z,12.60
2019-05-22T00:28:04.216Z,12.43
2019-05-22T00:30:34.454Z,11.83
2019-05-22T00:33:03.012Z,11.73
2019-05-22T00:35:31.946Z,11.73
2019-05-22T00:38:01.611Z,11.05
2019-05-22T00:40:32.109Z,11.22
2019-05-22T00:43:06.785Z,11.80
2019-05-22T00:45:31.329Z,9.78
2019-05-22T00:48:00.411Z,10.00
2019-05-22T00:50:33.435Z,9.28
2019-05-22T00:53:05.292Z,8.88
2019-05-22T00:55:47.799Z,9.15
2019-05-22T00:58:24.708Z,7.95
2019-05-22T01:00:55.841Z,8.33
2019-05-22T01:03:26.053Z,9.00
2019-05-22T01:05:55.636Z,8.40
2019-05-22T01:08:25.992Z,9.45
2019-05-22T01:10:56.185Z,9.00
2019-05-22T01:13:28.173Z,8.73
2019-05-22T01:15:58.631Z,8.40
2019-05-22T01:18:28.392Z,8.90
2019-05-22T01:20:59.560Z,9.88
2019-05-22T01:23:30.377Z,7.60
2019-05-22T01:26:01.209Z,7.65
2019-05-22T01:28:30.255Z,7.40
2019-05-22T01:31:04.279Z,7.03
2019-05-22T01:33:35.015Z,7.95
2019-05-22T01:36:05.879Z,7.78
2019-05-22T01:38:36.007Z,7.28
2019-05-22T01:41:20.551Z,8.28
2019-05-22T01:43:51.426Z,8.40
2019-05-22T01:46:22.036Z,10.48
2019-05-22T01:48:53.843Z,9.15
2019-05-22T01:51:22.638Z,8.90
2019-05-22T01:53:51.912Z,8.83
2019-05-22T01:56:21.087Z,9.90
2019-05-22T01:58:49.932Z,9.25
2019-05-22T02:01:24.025Z,10.95
2019-05-22T02:03:54.757Z,11.65
2019-05-22T02:06:25.022Z,11.33
2019-05-22T02:09:06.624Z,11.45
2019-05-22T02:11:37.053Z,12.73
2019-05-22T02:14:09.359Z,12.80
2019-05-22T02:16:55.663Z,12.65
2019-05-22T02:23:10.950Z,15.68
2019-05-22T02:25:40.408Z,14.75
2019-05-22T02:28:09.203Z,13.93
2019-05-22T02:30:40.304Z,13.70
2019-05-22T02:33:11.164Z,13.60
2019-05-22T02:35:41.358Z,13.68
2019-05-22T02:38:10.285Z,13.90
2019-05-22T02:40:41.857Z,13.62
2019-05-22T02:43:11.877Z,15.30
2019-05-22T02:45:41.483Z,14.25
2019-05-22T02:48:12.092Z,15.50
2019-05-22T02:50:42.061Z,14.27
2019-05-22T02:53:14.930Z,13.22
2019-05-22T02:55:44.292Z,14.07
2019-05-22T02:58:13.636Z,14.65
2019-05-22T03:01:03.177Z,14.37
2019-05-22T03:03:33.735Z,14.70
2019-05-22T03:06:03.836Z,14.98
2019-05-22T03:08:58.415Z,14.15
2019-05-22T03:11:29.979Z,15.15
2019-05-22T03:14:03.472Z,16.32
2019-05-22T03:16:50.019Z,15.23
2019-05-22T03:19:25.918Z,15.05
2019-05-22T03:21:57.190Z,15.08
2019-05-22T03:24:26.948Z,17.50
2019-05-22T03:26:55.927Z,15.68
2019-05-22T03:29:33.500Z,16.07
2019-05-22T03:32:03.553Z,14.07
2019-05-22T03:34:34.985Z,13.93
2019-05-22T03:37:04.222Z,14.58
2019-05-22T03:39:33.329Z,16.93
2019-05-22T03:42:02.885Z,14.68
2019-05-22T03:44:31.602Z,17.80
2019-05-22T03:47:00.477Z,15.80
2019-05-22T03:49:31.263Z,14.78
2019-05-22T03:52:00.147Z,15.10
2019-05-22T03:54:30.137Z,15.23
2019-05-22T03:56:58.761Z,13.58
2019-05-22T03:59:28.061Z,14.20
2019-05-22T04:01:57.998Z,13.32
2019-05-22T04:04:39.785Z,14.25
2019-05-22T04:07:12.190Z,11.88
2019-05-22T04:09:43.055Z,11.36
2019-05-22T04:12:12.710Z,12.53
2019-05-22T04:14:42.403Z,11.20
2019-05-22T04:17:13.308Z,10.28
2019-05-22T04:19:49.639Z,11.15
2019-05-22T04:22:14.350Z,10.70
2019-05-22T04:24:43.373Z,9.53
2019-05-22T04:27:12.415Z,8.68
2019-05-22T04:29:42.281Z,8.78
2019-05-22T04:32:32.238Z,8.40
2019-05-22T04:35:02.532Z,7.25
2019-05-22T04:37:32.039Z,7.05
2019-05-22T04:40:20.276Z,6.35
2019-05-22T04:42:48.828Z,6.08
2019-05-22T04:45:19.095Z,5.80
2019-05-22T04:47:57.361Z,6.03
2019-05-22T04:50:26.717Z,6.10
2019-05-22T04:52:55.809Z,6.95
2019-05-22T04:55:24.646Z,5.20
2019-05-22T04:57:54.117Z,4.62
2019-05-22T05:00:24.047Z,4.95
2019-05-22T05:02:52.847Z,4.05
2019-05-22T05:05:25.145Z,4.80
2019-05-22T05:07:54.738Z,5.10
2019-05-22T05:10:24.297Z,4.33
2019-05-22T05:13:12.317Z,4.07
2019-05-22T05:15:40.983Z,4.95
2019-05-22T05:18:10.195Z,5.83
2019-05-22T05:20:39.033Z,4.78
2019-05-22T05:23:07.956Z,5.73
2019-05-22T05:25:36.892Z,5.12
2019-05-22T05:28:07.550Z,4.80
2019-05-22T05:30:36.648Z,5.90
2019-05-22T05:33:06.272Z,4.50
2019-05-22T05:35:36.533Z,5.35
2019-05-22T05:38:06.034Z,4.50
2019-05-22T05:40:40.583Z,7.15
2019-05-22T05:43:14.009Z,5.08
2019-05-22T05:45:44.442Z,4.10
2019-05-22T05:48:16.093Z,4.00
2019-05-22T05:51:06.341Z,4.33
2019-05-22T05:53:42.166Z,4.85
2019-05-22T05:56:14.891Z,3.47
2019-05-22T05:58:44.564Z,3.85
2019-05-22T06:01:20.817Z,3.52
2019-05-22T06:03:49.647Z,3.37
2019-05-22T06:06:26.051Z,3.75
2019-05-22T06:08:56.461Z,4.37
2019-05-22T06:11:39.823Z,4.67
2019-05-22T06:14:10.213Z,4.40
2019-05-22T06:17:00.941Z,5.50
2019-05-22T06:19:31.642Z,4.72
2019-05-22T06:22:00.566Z,5.92
2019-05-22T06:24:36.786Z,5.62
2019-05-22T06:27:14.293Z,6.83
2019-05-22T06:30:04.882Z,3.77
2019-05-22T06:32:57.974Z,3.65
2019-05-22T06:35:31.471Z,6.33
2019-05-22T06:38:35.061Z,4.75
2019-05-22T06:41:05.397Z,4.50
2019-05-22T06:43:37.615Z,5.42
2019-05-22T06:46:08.169Z,4.37
2019-05-22T06:48:37.030Z,4.08
2019-05-22T06:51:18.606Z,5.62
2019-05-22T06:53:36.401Z,4.97
2019-05-22T06:56:04.996Z,5.50
2019-05-22T06:58:33.663Z,4.97
2019-05-22T07:01:02.580Z,6.37
2019-05-22T07:03:31.429Z,6.15
2019-05-22T07:06:01.026Z,5.85
2019-05-22T07:08:29.822Z,5.08
2019-05-22T07:10:58.869Z,5.30
2019-05-22T07:13:28.517Z,3.98
2019-05-22T07:16:00.534Z,3.17
2019-05-22T07:18:29.632Z,5.30
2019-05-22T07:20:58.223Z,4.08
2019-05-22T07:23:27.791Z,4.47
2019-05-22T07:25:57.540Z,3.37
2019-05-22T07:28:27.786Z,4.60
2019-05-22T07:30:58.055Z,4.42
2019-05-22T07:33:26.932Z,4.47
2019-05-22T07:36:16.018Z,3.85
2019-05-22T07:38:26.222Z,7.80
2019-05-22T07:40:55.628Z,3.52
2019-05-22T07:43:24.481Z,3.75
2019-05-22T07:45:55.669Z,3.37
2019-05-22T07:48:26.140Z,5.22
2019-05-22T07:50:55.384Z,5.33
2019-05-22T07:53:26.017Z,6.00
2019-05-22T07:55:55.469Z,4.50
2019-05-22T07:58:25.662Z,8.04
2019-05-22T08:00:56.654Z,4.12
2019-05-22T08:03:26.089Z,4.58
2019-05-22T08:05:56.543Z,4.62
2019-05-22T08:08:26.595Z,5.87
2019-05-22T08:10:57.345Z,6.15
2019-05-22T08:13:27.144Z,4.22
2019-05-22T08:15:56.295Z,5.22
2019-05-22T08:18:27.110Z,4.60
2019-05-22T08:20:56.642Z,5.13
2019-05-22T08:23:26.781Z,5.05
2019-05-22T08:25:59.480Z,5.25
2019-05-22T08:28:30.517Z,5.42
2019-05-22T08:31:00.361Z,6.10
2019-05-22T08:33:30.177Z,7.10
2019-05-22T08:36:02.213Z,11.55
2019-05-22T08:38:32.610Z,9.25
2019-05-22T08:41:06.257Z,9.05
2019-05-22T08:43:55.814Z,11.80
2019-05-22T08:46:07.077Z,11.28
2019-05-22T08:48:38.178Z,21.97
2019-05-22T08:51:08.107Z,15.98
2019-05-22T08:53:46.816Z,26.50
2019-05-22T08:56:10.298Z,21.73
2019-05-22T08:58:40.547Z,27.35
2019-05-22T09:01:10.846Z,44.98
2019-05-22T09:03:39.683Z,49.67
2019-05-22T09:06:09.176Z,43.75
2019-05-22T09:08:37.840Z,18.87
2019-05-22T09:11:06.736Z,8.43
2019-05-22T09:13:35.487Z,5.45
2019-05-22T09:16:04.949Z,6.30
2019-05-22T09:18:34.265Z,9.48
2019-05-22T09:21:03.567Z,11.93
2019-05-22T09:23:33.942Z,8.38
2019-05-22T09:26:02.602Z,4.80
2019-05-22T09:28:31.359Z,5.10
2019-05-22T09:31:00.010Z,3.85
2019-05-22T09:33:29.083Z,5.47
2019-05-22T09:35:58.473Z,3.45
2019-05-22T09:38:27.721Z,8.68
2019-05-22T09:40:56.540Z,8.28
2019-05-22T09:43:25.107Z,5.83
2019-05-22T09:45:53.695Z,9.13
2019-05-22T09:48:22.260Z,5.40
2019-05-22T09:50:50.840Z,5.00
2019-05-22T09:53:21.857Z,4.85
2019-05-22T09:55:51.570Z,11.15
2019-05-22T09:58:20.433Z,9.68
2019-05-22T10:00:49.069Z,7.20
2019-05-22T10:03:17.908Z,7.28
2019-05-22T10:05:47.337Z,15.30
2019-05-22T10:08:16.141Z,22.73
2019-05-22T10:10:45.111Z,16.60
2019-05-22T10:13:14.228Z,27.07
2019-05-22T10:15:43.299Z,11.25
2019-05-22T10:18:12.869Z,9.93
2019-05-22T10:20:41.575Z,11.73
2019-05-22T10:23:15.374Z,4.50
2019-05-22T10:25:41.259Z,6.35
2019-05-22T10:28:09.969Z,5.78
2019-05-22T10:30:38.697Z,6.65
2019-05-22T10:33:08.025Z,7.73
2019-05-22T10:35:37.411Z,6.00
2019-05-22T10:38:06.085Z,7.07
2019-05-22T10:40:34.760Z,5.87
2019-05-22T10:43:04.450Z,6.05
2019-05-22T10:45:33.555Z,6.10
2019-05-22T10:48:02.867Z,4.45
2019-05-22T10:50:31.484Z,6.00
2019-05-22T10:53:00.074Z,6.17
2019-05-22T10:55:30.233Z,5.33
2019-05-22T10:57:59.348Z,6.70
2019-05-22T11:00:29.006Z,7.70
2019-05-22T11:02:57.814Z,9.08
2019-05-22T11:05:27.640Z,9.90
2019-05-22T11:07:57.766Z,12.18
2019-05-22T11:10:27.707Z,9.93
2019-05-22T11:12:56.419Z,10.48
2019-05-22T11:15:26.271Z,11.00
2019-05-22T11:17:55.740Z,12.60
2019-05-22T11:20:25.540Z,11.53
2019-05-22T11:22:54.672Z,12.10
2019-05-22T11:25:24.287Z,11.85
2019-05-22T11:27:53.767Z,12.98
2019-05-22T11:30:24.427Z,13.83
2019-05-22T11:32:53.579Z,10.93
2019-05-22T11:35:23.054Z,12.10
2019-05-22T11:37:52.504Z,13.75
2019-05-22T11:40:22.090Z,11.90
2019-05-22T11:42:52.130Z,13.93
2019-05-22T11:45:21.687Z,11.60
2019-05-22T11:47:51.689Z,12.43
2019-05-22T11:50:21.256Z,11.23
2019-05-22T11:52:50.161Z,11.48
2019-05-22T11:55:19.236Z,11.70
2019-05-22T11:57:48.052Z,11.35
2019-05-22T12:00:20.145Z,11.08
2019-05-22T12:02:49.574Z,10.95
2019-05-22T12:05:20.979Z,11.13
2019-05-22T12:07:50.312Z,10.25
2019-05-22T12:10:22.166Z,10.08
2019-05-22T12:12:52.945Z,10.55
2019-05-22T12:15:25.054Z,11.55
2019-05-22T12:17:54.260Z,9.20
2019-05-22T12:20:24.916Z,8.10
2019-05-22T12:22:53.686Z,7.78
2019-05-22T12:25:22.937Z,7.65
2019-05-22T12:27:51.874Z,8.23
2019-05-22T12:30:21.628Z,7.12
2019-05-22T12:32:52.096Z,4.90
2019-05-22T12:35:21.210Z,4.83
2019-05-22T12:37:50.467Z,6.12
2019-05-22T12:40:20.370Z,4.58
2019-05-22T12:42:51.112Z,4.55
2019-05-22T12:45:28.556Z,3.47
2019-05-22T12:47:57.733Z,3.75
2019-05-22T12:50:30.037Z,4.03
2019-05-22T12:53:01.285Z,2.77
2019-05-22T12:55:30.518Z,6.12
2019-05-22T12:58:00.616Z,5.75
2019-05-22T13:00:31.378Z,4.87
2019-05-22T13:03:01.878Z,3.92
2019-05-22T13:05:31.439Z,5.43
2019-05-22T13:08:00.719Z,4.35
2019-05-22T13:10:29.372Z,2.55
2019-05-22T13:12:58.554Z,4.22
2019-05-22T13:15:27.333Z,3.37
2019-05-22T13:17:57.999Z,6.58
2019-05-22T13:20:42.665Z,3.87
2019-05-22T13:23:04.741Z,5.40
2019-05-22T13:25:36.486Z,4.75
2019-05-22T13:28:07.158Z,4.00
2019-05-22T13:30:37.808Z,4.53
2019-05-22T13:33:08.647Z,5.15
2019-05-22T13:35:37.880Z,6.20
2019-05-22T13:38:07.067Z,4.87
2019-05-22T13:40:43.030Z,5.42
2019-05-22T13:43:11.994Z,5.10
2019-05-22T13:45:40.807Z,6.15
2019-05-22T13:48:09.694Z,4.97
2019-05-22T13:50:39.318Z,5.17
2019-05-22T13:53:10.868Z,5.53
2019-05-22T13:55:41.192Z,4.75
2019-05-22T13:58:11.779Z,4.90
2019-05-22T14:00:41.643Z,9.75
2019-05-22T14:03:10.890Z,4.97
2019-05-22T14:05:41.955Z,3.30
2019-05-22T14:08:10.991Z,4.15
2019-05-22T14:10:40.221Z,5.47
2019-05-22T14:13:09.553Z,5.08
2019-05-22T14:15:50.610Z,7.10
2019-05-22T14:18:09.372Z,6.45
2019-05-22T14:20:57.421Z,3.84
2019-05-22T14:23:26.160Z,5.47
2019-05-22T14:25:55.297Z,5.05
2019-05-22T14:28:25.395Z,4.58
2019-05-22T14:30:54.161Z,4.40
2019-05-22T14:33:27.623Z,4.37
2019-05-22T14:35:56.090Z,7.17
2019-05-22T14:38:25.868Z,13.78
2019-05-22T14:40:54.563Z,11.20
2019-05-22T14:43:23.422Z,12.50
2019-05-22T14:45:52.478Z,10.88
2019-05-22T14:48:21.189Z,6.50
2019-05-22T14:50:49.944Z,12.37
2019-05-22T14:53:19.153Z,9.85
2019-05-22T14:55:48.983Z,9.03
2019-05-22T14:58:19.256Z,10.93
2019-05-22T15:00:48.659Z,7.40
2019-05-22T15:03:17.685Z,13.48
2019-05-22T15:05:46.778Z,23.52
2019-05-22T15:08:16.218Z,9.90
2019-05-22T15:10:45.832Z,6.40
2019-05-22T15:13:16.584Z,4.97
2019-05-22T15:15:45.736Z,4.33
2019-05-22T15:18:14.670Z,4.67
2019-05-22T15:21:03.468Z,6.08
2019-05-22T15:23:35.143Z,5.67
2019-05-22T15:26:04.251Z,8.38
2019-05-22T15:28:34.137Z,5.50
2019-05-22T15:31:03.094Z,5.47
2019-05-22T15:33:34.190Z,9.28
2019-05-22T15:36:06.827Z,4.55
2019-05-22T15:38:38.537Z,6.40
2019-05-22T15:41:09.653Z,4.53
2019-05-22T15:43:40.425Z,6.20
2019-05-22T15:46:10.742Z,7.03
2019-05-22T15:48:42.015Z,4.60
2019-05-22T15:51:10.768Z,6.53
2019-05-22T15:53:41.469Z,1.72
2019-05-22T15:56:11.336Z,1.95
2019-05-22T15:58:42.609Z,2.33
2019-05-22T16:01:13.035Z,1.30
2019-05-22T16:03:44.652Z,3.75
2019-05-22T16:06:14.824Z,4.20
2019-05-22T16:08:43.783Z,4.60
2019-05-22T16:11:15.351Z,2.42
2019-05-22T16:13:46.267Z,1.32
2019-05-22T16:16:16.777Z,2.33
2019-05-22T16:18:47.503Z,2.92
2019-05-22T16:21:17.021Z,3.37
2019-05-22T16:23:46.868Z,1.60
2019-05-22T16:26:15.652Z,1.92
2019-05-22T16:28:48.078Z,1.37
2019-05-22T16:31:18.308Z,3.87
2019-05-22T16:33:48.036Z,3.37
2019-05-22T16:36:20.102Z,1.37
2019-05-22T16:38:49.832Z,10.10
2019-05-22T16:41:22.137Z,1.50
2019-05-22T16:43:52.156Z,1.60
2019-05-22T16:46:21.865Z,1.50
2019-05-22T16:48:52.615Z,2.68
2019-05-22T16:51:22.436Z,1.90
2019-05-22T16:53:53.779Z,2.40
2019-05-22T16:56:23.488Z,1.95
2019-05-22T16:58:52.690Z,1.50
2019-05-22T17:01:24.311Z,2.92
2019-05-22T17:03:55.033Z,4.78
2019-05-22T17:06:25.411Z,1.92
2019-05-22T17:08:57.956Z,3.72
2019-05-22T17:11:28.448Z,2.72
2019-05-22T17:14:01.502Z,2.37
2019-05-22T17:16:32.301Z,2.77
2019-05-22T17:19:01.312Z,2.67
2019-05-22T17:21:35.886Z,2.63
2019-05-22T17:24:05.773Z,1.95
2019-05-22T17:26:35.094Z,3.04
2019-05-22T17:29:04.024Z,2.70
2019-05-22T17:31:33.606Z,3.08
2019-05-22T17:34:02.775Z,3.75
2019-05-22T17:36:31.882Z,6.08
2019-05-22T17:39:01.781Z,4.12
2019-05-22T17:41:32.455Z,3.25
2019-05-22T17:44:02.272Z,4.90
2019-05-22T17:46:32.469Z,5.05
2019-05-22T17:49:02.269Z,4.20
2019-05-22T17:51:31.871Z,5.65
2019-05-22T17:54:00.956Z,4.60
2019-05-22T17:56:29.701Z,5.67
2019-05-22T17:58:58.630Z,3.95
2019-05-22T18:01:27.588Z,3.47
2019-05-22T18:03:56.287Z,3.58
2019-05-22T18:06:24.938Z,3.33
2019-05-22T18:08:54.668Z,3.47
2019-05-22T18:11:24.403Z,3.05
2019-05-22T18:14:01.433Z,8.05
2019-05-22T18:16:31.210Z,5.22
2019-05-22T18:19:00.231Z,3.62
2019-05-22T18:21:29.000Z,3.87
2019-05-22T18:23:57.795Z,3.08
2019-05-22T18:26:26.947Z,4.85
2019-05-22T18:28:55.952Z,2.72
2019-05-22T18:31:24.754Z,3.77
2019-05-22T18:33:53.494Z,5.58
2019-05-22T18:36:22.072Z,4.87
2019-05-22T18:38:50.751Z,3.65
2019-05-22T18:41:40.145Z,5.37
2019-05-22T18:44:08.827Z,4.20
2019-05-22T18:46:37.647Z,4.80
2019-05-22T18:49:06.305Z,5.20
2019-05-22T18:51:35.266Z,4.22
2019-05-22T18:54:04.169Z,3.57
2019-05-22T18:56:33.777Z,4.97
2019-05-22T18:59:02.839Z,4.43
2019-05-22T19:01:31.594Z,4.42
2019-05-22T19:04:00.488Z,4.28
2019-05-22T19:06:30.798Z,3.97
2019-05-22T19:08:59.847Z,3.72
2019-05-22T19:11:28.650Z,3.55
2019-05-22T19:13:58.148Z,3.30
2019-05-22T19:16:27.243Z,5.15
2019-05-22T19:18:56.140Z,4.33
2019-05-22T19:21:24.935Z,5.07
2019-05-22T19:23:53.683Z,7.83
2019-05-22T19:26:22.802Z,3.27
2019-05-22T19:28:52.015Z,4.60
2019-05-22T19:31:20.758Z,4.97
2019-05-22T19:33:49.862Z,4.97
2019-05-22T19:36:18.609Z,4.25
2019-05-22T19:38:47.424Z,3.97
2019-05-22T19:41:16.537Z,3.92
2019-05-22T19:43:45.847Z,5.34
2019-05-22T19:46:15.157Z,5.22
2019-05-22T19:48:51.055Z,4.58
2019-05-22T19:51:20.020Z,4.03
2019-05-22T19:53:50.115Z,4.44
2019-05-22T19:56:39.232Z,6.85
2019-05-22T19:59:08.693Z,8.23
2019-05-22T20:01:38.664Z,5.28
2019-05-22T20:04:07.801Z,5.28
2019-05-22T20:06:38.379Z,4.65
2019-05-22T20:09:11.748Z,5.52
2019-05-22T20:11:40.696Z,4.28
2019-05-22T20:14:09.480Z,3.40
2019-05-22T20:16:38.271Z,6.50
2019-05-22T20:19:08.317Z,4.72
2019-05-22T20:21:37.113Z,4.78
2019-05-22T20:24:06.468Z,3.80
2019-05-22T20:26:35.154Z,4.10
2019-05-22T20:29:04.467Z,3.85
2019-05-22T20:31:33.035Z,4.22
2019-05-22T20:34:01.849Z,4.03
2019-05-22T20:36:31.269Z,3.17
2019-05-22T20:38:59.902Z,3.77
2019-05-22T20:41:29.080Z,2.62
2019-05-22T20:43:59.744Z,4.65
2019-05-22T20:46:28.430Z,5.72
2019-05-22T20:48:57.270Z,3.30
2019-05-22T20:51:26.549Z,3.55
2019-05-22T20:53:55.800Z,3.60
2019-05-22T20:56:27.151Z,2.55
2019-05-22T20:58:56.711Z,3.15
2019-05-22T21:01:25.515Z,3.55
2019-05-22T21:03:55.570Z,5.12
2019-05-22T21:06:25.994Z,3.67
2019-05-22T21:08:54.648Z,2.85
2019-05-22T21:11:25.981Z,4.25
2019-05-22T21:13:58.930Z,3.15
2019-05-22T21:16:29.592Z,3.50
2019-05-22T21:18:58.563Z,2.37
2019-05-22T21:21:28.712Z,3.73
2019-05-22T21:24:10.013Z,4.50
2019-05-22T21:26:28.142Z,3.58
2019-05-22T21:28:57.561Z,3.25
2019-05-22T21:31:26.665Z,2.70
2019-05-22T21:33:56.992Z,2.33
2019-05-22T21:36:28.121Z,3.60
2019-05-22T21:38:57.391Z,3.55
2019-05-22T21:41:26.639Z,2.02
2019-05-22T21:43:56.042Z,1.98
2019-05-22T21:46:25.416Z,2.25
2019-05-22T21:48:55.716Z,1.50
2019-05-22T21:51:24.574Z,2.42
2019-05-22T21:53:53.262Z,1.67
2019-05-22T21:56:22.583Z,2.30
2019-05-22T21:58:51.984Z,2.20
2019-05-22T22:01:22.317Z,2.17
2019-05-22T22:03:53.936Z,1.70
2019-05-22T22:06:22.754Z,2.55
2019-05-22T22:08:52.154Z,3.22
2019-05-22T22:11:23.921Z,4.60
2019-05-22T22:13:53.059Z,1.60
2019-05-22T22:16:22.941Z,2.47
2019-05-22T22:18:51.760Z,1.35
2019-05-22T22:21:21.142Z,4.33
2019-05-22T22:23:50.039Z,2.67
2019-05-22T22:26:25.263Z,2.53
2019-05-22T22:28:49.405Z,1.25
2019-05-22T22:31:19.984Z,1.44
2019-05-22T22:33:51.984Z,1.30
2019-05-22T22:36:20.762Z,2.70
2019-05-22T22:38:49.619Z,1.67
2019-05-22T22:41:19.952Z,1.95
2019-05-22T22:43:49.187Z,2.80
2019-05-22T22:46:43.444Z,1.72
2019-05-22T22:49:15.220Z,1.52
2019-05-22T22:51:44.014Z,0.60
2019-05-22T22:54:13.555Z,1.42
2019-05-22T22:56:43.638Z,1.17
2019-05-22T22:59:12.826Z,1.30
2019-05-22T23:01:44.024Z,1.92
2019-05-22T23:04:13.586Z,1.20
2019-05-22T23:06:42.873Z,1.57
2019-05-22T23:09:12.389Z,1.45
2019-05-22T23:11:41.874Z,2.12
2019-05-22T23:14:11.347Z,1.70
2019-05-22T23:16:40.975Z,1.52
2019-05-22T23:19:13.354Z,0.80
2019-05-22T23:21:40.840Z,1.00
2019-05-22T23:24:10.972Z,1.82
2019-05-22T23:26:41.742Z,1.57
2019-05-22T23:29:11.598Z,1.55
2019-05-22T23:31:42.116Z,1.53
2019-05-22T23:34:11.626Z,1.65
2019-05-22T23:36:41.542Z,1.67
2019-05-22T23:39:15.372Z,1.82
2019-05-22T23:41:45.221Z,3.40
2019-05-22T23:44:17.019Z,1.30
2019-05-22T23:46:47.150Z,2.50
2019-05-22T23:49:16.756Z,1.00
2019-05-22T23:51:45.542Z,3.33
2019-05-22T23:54:14.136Z,1.92
2019-05-22T23:56:44.409Z,2.30
